sensor_id;sensor_type;location;lat;lon;timestamp;pressure;altitude;pressure_sealevel;temperature;humidity
9764;BME280;4921;43.214;27.936;2023-06-10T00:01:42;100431.28;;;22.09;100.00
9764;BME280;4921;43.214;27.936;2023-06-10T00:04:12;100426.75;;;22.10;100.00
9764;BME280;4921;43.214;27.936;2023-06-10T00:06:40;100430.28;;;22.10;100.00
9764;BME280;4921;43.214;27.936;2023-06-10T00:09:07;100430.28;;;22.10;100.00
9764;BME280;4921;43.214;27.936;2023-06-10T00:11:36;100420.97;;;21.99;100.00
9764;BME280;4921;43.214;27.936;2023-06-10T00:14:04;100429.44;;;22.10;100.00
9764;BME280;4921;43.214;27.936;2023-06-10T00:16:34;100434.78;;;22.10;100.00
9764;BME280;4921;43.214;27.936;2023-06-10T00:19:02;100417.22;;;21.94;100.00
9764;BME280;4921;43.214;27.936;2023-06-10T00:21:32;100440.16;;;22.10;100.00
9764;BME280;4921;43.214;27.936;2023-06-10T00:24:03;100436.22;;;22.06;100.00
9764;BME280;4921;43.214;27.936;2023-06-10T00:26:31;100434.38;;;22.06;100.00
9764;BME280;4921;43.214;27.936;2023-06-10T00:28:58;100436.22;;;22.06;100.00
9764;BME280;4921;43.214;27.936;2023-06-10T00:31:25;100432.09;;;22.03;100.00
9764;BME280;4921;43.214;27.936;2023-06-10T00:33:54;100433.94;;;22.02;100.00
9764;BME280;4921;43.214;27.936;2023-06-10T00:36:21;100426.94;;;22.02;100.00
9764;BME280;4921;43.214;27.936;2023-06-10T00:38:48;100429.00;;;21.99;100.00
9764;BME280;4921;43.214;27.936;2023-06-10T00:41:15;100425.66;;;21.97;100.00
9764;BME280;4921;43.214;27.936;2023-06-10T00:43:42;100424.88;;;21.97;100.00
9764;BME280;4921;43.214;27.936;2023-06-10T00:46:10;100430.22;;;21.97;100.00
9764;BME280;4921;43.214;27.936;2023-06-10T00:48:39;100426.91;;;21.95;100.00
9764;BME280;4921;43.214;27.936;2023-06-10T00:51:08;100426.09;;;21.94;100.00
9764;BME280;4921;43.214;27.936;2023-06-10T00:53:36;100422.56;;;21.94;100.00
9764;BME280;4921;43.214;27.936;2023-06-10T00:56:06;100433.28;;;21.94;100.00
9764;BME280;4921;43.214;27.936;2023-06-10T00:58:33;100427.94;;;21.94;100.00
9764;BME280;4921;43.214;27.936;2023-06-10T01:01:00;100428.75;;;21.94;100.00
9764;BME280;4921;43.214;27.936;2023-06-10T01:03:29;100432.44;;;21.93;100.00
9764;BME280;4921;43.214;27.936;2023-06-10T01:06:01;100439.47;;;21.94;100.00
9764;BME280;4921;43.214;27.936;2023-06-10T01:08:37;100426.09;;;21.94;100.00
9764;BME280;4921;43.214;27.936;2023-06-10T01:11:08;100434.97;;;21.95;100.00
9764;BME280;4921;43.214;27.936;2023-06-10T01:13:41;100434.13;;;21.94;100.00
9764;BME280;4921;43.214;27.936;2023-06-10T01:16:09;100439.47;;;21.94;100.00
9764;BME280;4921;43.214;27.936;2023-06-10T01:18:37;100445.03;;;21.93;100.00
9764;BME280;4921;43.214;27.936;2023-06-10T01:21:05;100433.72;;;21.91;100.00
9764;BME280;4921;43.214;27.936;2023-06-10T01:23:34;100426.69;;;21.90;100.00
9764;BME280;4921;43.214;27.936;2023-06-10T01:26:03;100433.06;;;21.89;100.00
9764;BME280;4921;43.214;27.936;2023-06-10T01:28:38;100431.63;;;21.86;100.00
9764;BME280;4921;43.214;27.936;2023-06-10T01:31:13;100426.22;;;21.80;100.00
9764;BME280;4921;43.214;27.936;2023-06-10T01:33:46;100441.66;;;21.78;100.00
9764;BME280;4921;43.214;27.936;2023-06-10T01:36:15;100420.63;;;21.75;100.00
9764;BME280;4921;43.214;27.936;2023-06-10T01:38:47;100420.59;;;21.68;100.00
9764;BME280;4921;43.214;27.936;2023-06-10T01:41:17;100416.44;;;21.66;100.00
9764;BME280;4921;43.214;27.936;2023-06-10T01:43:44;100420.16;;;21.65;100.00
9764;BME280;4921;43.214;27.936;2023-06-10T01:46:12;100415.81;;;21.64;100.00
9764;BME280;4921;43.214;27.936;2023-06-10T01:48:39;100414.78;;;21.58;100.00
9764;BME280;4921;43.214;27.936;2023-06-10T01:51:06;100413.53;;;21.54;100.00
9764;BME280;4921;43.214;27.936;2023-06-10T01:53:33;100407.72;;;21.51;100.00
9764;BME280;4921;43.214;27.936;2023-06-10T01:56:02;100413.28;;;21.49;100.00
9764;BME280;4921;43.214;27.936;2023-06-10T01:58:29;100416.16;;;21.48;100.00
9764;BME280;4921;43.214;27.936;2023-06-10T02:00:56;100417.16;;;21.47;100.00
9764;BME280;4921;43.214;27.936;2023-06-10T02:03:23;100417.16;;;21.47;100.00
9764;BME280;4921;43.214;27.936;2023-06-10T02:05:50;100420.06;;;21.45;100.00
9764;BME280;4921;43.214;27.936;2023-06-10T02:08:17;100416.13;;;21.41;100.00
9764;BME280;4921;43.214;27.936;2023-06-10T02:10:44;100414.63;;;21.32;100.00
9764;BME280;4921;43.214;27.936;2023-06-10T02:13:12;100410.28;;;21.31;100.00
9764;BME280;4921;43.214;27.936;2023-06-10T02:15:39;100411.94;;;21.32;100.00
9764;BME280;4921;43.214;27.936;2023-06-10T02:18:06;100421.56;;;21.26;100.00
9764;BME280;4921;43.214;27.936;2023-06-10T02:20:33;100422.56;;;21.19;100.00
9764;BME280;4921;43.214;27.936;2023-06-10T02:23:00;100425.38;;;21.11;100.00
9764;BME280;4921;43.214;27.936;2023-06-10T02:25:27;100416.31;;;21.12;100.00
9764;BME280;4921;43.214;27.936;2023-06-10T02:27:54;100421.09;;;21.16;100.00
9764;BME280;4921;43.214;27.936;2023-06-10T02:30:23;100417.78;;;21.14;100.00
9764;BME280;4921;43.214;27.936;2023-06-10T02:32:50;100419.00;;;21.12;100.00
9764;BME280;4921;43.214;27.936;2023-06-10T02:35:18;100412.63;;;21.13;100.00
9764;BME280;4921;43.214;27.936;2023-06-10T02:37:45;100415.69;;;21.10;100.00
9764;BME280;4921;43.214;27.936;2023-06-10T02:40:12;100421.66;;;21.12;100.00
9764;BME280;4921;43.214;27.936;2023-06-10T02:42:39;100418.00;;;21.13;100.00
9764;BME280;4921;43.214;27.936;2023-06-10T02:45:07;100408.09;;;21.13;100.00
9764;BME280;4921;43.214;27.936;2023-06-10T02:47:37;100411.38;;;21.09;100.00
9764;BME280;4921;43.214;27.936;2023-06-10T02:50:05;100419.41;;;21.09;100.00
9764;BME280;4921;43.214;27.936;2023-06-10T02:52:32;100411.56;;;21.07;100.00
9764;BME280;4921;43.214;27.936;2023-06-10T02:54:59;100423.47;;;21.05;100.00
9764;BME280;4921;43.214;27.936;2023-06-10T02:57:26;100425.13;;;21.06;100.00
9764;BME280;4921;43.214;27.936;2023-06-10T02:59:53;100425.97;;;21.06;100.00
9764;BME280;4921;43.214;27.936;2023-06-10T03:02:20;100426.59;;;21.08;100.00
9764;BME280;4921;43.214;27.936;2023-06-10T03:04:48;100423.50;;;21.11;100.00
9764;BME280;4921;43.214;27.936;2023-06-10T03:07:18;100427.84;;;21.12;100.00
9764;BME280;4921;43.214;27.936;2023-06-10T03:09:46;100431.16;;;21.14;100.00
9764;BME280;4921;43.214;27.936;2023-06-10T03:12:13;100424.75;;;21.09;100.00
9764;BME280;4921;43.214;27.936;2023-06-10T03:14:40;100426.13;;;21.05;100.00
9764;BME280;4921;43.214;27.936;2023-06-10T03:17:07;100429.00;;;21.03;100.00
9764;BME280;4921;43.214;27.936;2023-06-10T03:19:35;100421.63;;;21.05;100.00
9764;BME280;4921;43.214;27.936;2023-06-10T03:22:11;100417.09;;;21.06;100.00
9764;BME280;4921;43.214;27.936;2023-06-10T03:24:39;100419.56;;;21.07;100.00
9764;BME280;4921;43.214;27.936;2023-06-10T03:27:07;100418.56;;;21.08;100.00
9764;BME280;4921;43.214;27.936;2023-06-10T03:29:35;100424.75;;;21.09;100.00
9764;BME280;4921;43.214;27.936;2023-06-10T03:32:02;100426.38;;;21.10;100.00
9764;BME280;4921;43.214;27.936;2023-06-10T03:34:29;100425.38;;;21.11;100.00
9764;BME280;4921;43.214;27.936;2023-06-10T03:36:56;100426.19;;;21.11;100.00
9764;BME280;4921;43.214;27.936;2023-06-10T03:39:25;100425.81;;;21.14;100.00
9764;BME280;4921;43.214;27.936;2023-06-10T03:41:54;100419.44;;;21.15;100.00
9764;BME280;4921;43.214;27.936;2023-06-10T03:44:22;100420.72;;;21.19;100.00
9764;BME280;4921;43.214;27.936;2023-06-10T03:46:49;100419.28;;;21.23;100.00
9764;BME280;4921;43.214;27.936;2023-06-10T03:49:16;100418.25;;;21.24;100.00
9764;BME280;4921;43.214;27.936;2023-06-10T03:51:43;100420.56;;;21.27;100.00
9764;BME280;4921;43.214;27.936;2023-06-10T03:54:10;100418.13;;;21.33;100.00
9764;BME280;4921;43.214;27.936;2023-06-10T03:56:39;100409.31;;;21.39;100.00
9764;BME280;4921;43.214;27.936;2023-06-10T03:59:06;100414.06;;;21.43;100.00
9764;BME280;4921;43.214;27.936;2023-06-10T04:01:34;100413.47;;;21.48;100.00
9764;BME280;4921;43.214;27.936;2023-06-10T04:04:03;100405.66;;;21.53;100.00
9764;BME280;4921;43.214;27.936;2023-06-10T04:06:30;100415.78;;;21.57;100.00
9764;BME280;4921;43.214;27.936;2023-06-10T04:08:59;100411.50;;;21.63;100.00
9764;BME280;4921;43.214;27.936;2023-06-10T04:11:27;100397.28;;;21.62;100.00
9764;BME280;4921;43.214;27.936;2023-06-10T04:13:56;100411.34;;;21.71;100.00
9764;BME280;4921;43.214;27.936;2023-06-10T04:16:23;100409.06;;;21.74;100.00
9764;BME280;4921;43.214;27.936;2023-06-10T04:18:50;100404.78;;;21.80;100.00
9764;BME280;4921;43.214;27.936;2023-06-10T04:21:17;100406.91;;;21.84;100.00
9764;BME280;4921;43.214;27.936;2023-06-10T04:23:44;100406.28;;;21.89;100.00
9764;BME280;4921;43.214;27.936;2023-06-10T04:26:11;100404.88;;;21.93;100.00
9764;BME280;4921;43.214;27.936;2023-06-10T04:28:38;100409.59;;;21.97;99.66
9764;BME280;4921;43.214;27.936;2023-06-10T04:31:07;100411.50;;;22.04;98.81
9764;BME280;4921;43.214;27.936;2023-06-10T04:33:34;100403.88;;;22.07;97.66
9764;BME280;4921;43.214;27.936;2023-06-10T04:36:01;100411.09;;;22.13;97.13
9764;BME280;4921;43.214;27.936;2023-06-10T04:38:28;100411.34;;;22.18;96.15
9764;BME280;4921;43.214;27.936;2023-06-10T04:40:56;100414.41;;;22.22;95.06
9764;BME280;4921;43.214;27.936;2023-06-10T04:43:23;100410.75;;;22.29;94.72
9764;BME280;4921;43.214;27.936;2023-06-10T04:45:50;100414.44;;;22.35;93.74
9764;BME280;4921;43.214;27.936;2023-06-10T04:48:18;100413.63;;;22.41;92.98
9764;BME280;4921;43.214;27.936;2023-06-10T04:50:45;100421.06;;;22.45;91.67
9764;BME280;4921;43.214;27.936;2023-06-10T04:53:12;100416.78;;;22.51;91.14
9764;BME280;4921;43.214;27.936;2023-06-10T04:55:40;100411.81;;;22.54;90.42
9764;BME280;4921;43.214;27.936;2023-06-10T04:58:07;100410.38;;;22.58;89.99
9764;BME280;4921;43.214;27.936;2023-06-10T05:00:34;100415.38;;;22.61;89.59
9764;BME280;4921;43.214;27.936;2023-06-10T05:03:01;100412.69;;;22.68;89.24
9764;BME280;4921;43.214;27.936;2023-06-10T05:05:30;100418.25;;;22.73;88.75
9764;BME280;4921;43.214;27.936;2023-06-10T05:07:57;100416.81;;;22.77;88.44
9764;BME280;4921;43.214;27.936;2023-06-10T05:10:24;100420.75;;;22.81;88.19
9764;BME280;4921;43.214;27.936;2023-06-10T05:12:51;100417.44;;;22.86;87.90
9764;BME280;4921;43.214;27.936;2023-06-10T05:15:18;100414.16;;;22.90;87.69
9764;BME280;4921;43.214;27.936;2023-06-10T05:17:45;100415.38;;;22.94;87.61
9764;BME280;4921;43.214;27.936;2023-06-10T05:20:12;100409.41;;;22.99;86.98
9764;BME280;4921;43.214;27.936;2023-06-10T05:22:42;100412.47;;;23.02;86.38
9764;BME280;4921;43.214;27.936;2023-06-10T05:25:09;100415.38;;;23.07;86.52
9764;BME280;4921;43.214;27.936;2023-06-10T05:27:36;100415.56;;;23.12;90.03
9764;BME280;4921;43.214;27.936;2023-06-10T05:30:04;100407.72;;;23.17;92.68
9764;BME280;4921;43.214;27.936;2023-06-10T05:32:33;100407.09;;;23.22;95.28
9764;BME280;4921;43.214;27.936;2023-06-10T05:35:00;100401.91;;;23.27;94.58
9764;BME280;4921;43.214;27.936;2023-06-10T05:37:27;100403.81;;;23.33;95.09
9764;BME280;4921;43.214;27.936;2023-06-10T05:39:55;100400.50;;;23.37;94.11
9764;BME280;4921;43.214;27.936;2023-06-10T05:42:22;100398.81;;;23.43;93.58
9764;BME280;4921;43.214;27.936;2023-06-10T05:44:49;100396.13;;;23.49;93.38
9764;BME280;4921;43.214;27.936;2023-06-10T05:47:16;100386.22;;;23.50;93.97
9764;BME280;4921;43.214;27.936;2023-06-10T05:49:47;100386.16;;;23.63;92.72
9764;BME280;4921;43.214;27.936;2023-06-10T05:52:15;100386.34;;;23.68;90.90
9764;BME280;4921;43.214;27.936;2023-06-10T05:54:42;100387.13;;;23.75;89.32
9764;BME280;4921;43.214;27.936;2023-06-10T05:57:10;100378.22;;;23.81;86.32
9764;BME280;4921;43.214;27.936;2023-06-10T05:59:37;100380.50;;;23.84;85.78
9764;BME280;4921;43.214;27.936;2023-06-10T06:02:05;100382.53;;;23.89;83.13
9764;BME280;4921;43.214;27.936;2023-06-10T06:04:33;100380.03;;;23.94;82.49
9764;BME280;4921;43.214;27.936;2023-06-10T06:07:00;100384.94;;;24.03;78.86
9764;BME280;4921;43.214;27.936;2023-06-10T06:09:27;100380.59;;;24.09;76.74
9764;BME280;4921;43.214;27.936;2023-06-10T06:11:54;100385.72;;;24.17;75.36
9764;BME280;4921;43.214;27.936;2023-06-10T06:14:22;100385.69;;;24.23;75.80
9764;BME280;4921;43.214;27.936;2023-06-10T06:16:49;100385.44;;;24.32;75.28
9764;BME280;4921;43.214;27.936;2023-06-10T06:19:17;100377.75;;;24.35;75.20
9764;BME280;4921;43.214;27.936;2023-06-10T06:21:44;100369.22;;;24.45;74.95
9764;BME280;4921;43.214;27.936;2023-06-10T06:24:10;100370.66;;;24.47;74.72
9764;BME280;4921;43.214;27.936;2023-06-10T06:26:37;100369.16;;;24.51;75.44
9764;BME280;4921;43.214;27.936;2023-06-10T06:29:04;100368.28;;;24.57;71.79
9764;BME280;4921;43.214;27.936;2023-06-10T06:31:33;100369.50;;;24.61;71.52
9764;BME280;4921;43.214;27.936;2023-06-10T06:34:00;100373.19;;;24.67;70.52
9764;BME280;4921;43.214;27.936;2023-06-10T06:36:27;100365.25;;;24.72;66.95
9764;BME280;4921;43.214;27.936;2023-06-10T06:38:54;100369.00;;;24.77;66.42
9764;BME280;4921;43.214;27.936;2023-06-10T06:41:21;100372.38;;;24.91;64.69
9764;BME280;4921;43.214;27.936;2023-06-10T06:43:48;100364.16;;;24.86;64.18
9764;BME280;4921;43.214;27.936;2023-06-10T06:46:15;100365.59;;;24.88;64.63
9764;BME280;4921;43.214;27.936;2023-06-10T06:48:44;100364.47;;;24.71;64.88
9764;BME280;4921;43.214;27.936;2023-06-10T06:51:10;100365.47;;;24.77;65.83
9764;BME280;4921;43.214;27.936;2023-06-10T06:53:38;100358.16;;;24.84;65.51
9764;BME280;4921;43.214;27.936;2023-06-10T06:56:09;100354.81;;;24.88;64.86
9764;BME280;4921;43.214;27.936;2023-06-10T06:58:36;100365.19;;;24.85;61.46
9764;BME280;4921;43.214;27.936;2023-06-10T07:01:03;100350.53;;;24.81;63.29
9764;BME280;4921;43.214;27.936;2023-06-10T07:03:30;100351.59;;;24.98;63.25
9764;BME280;4921;43.214;27.936;2023-06-10T07:05:59;100350.41;;;24.94;63.70
9764;BME280;4921;43.214;27.936;2023-06-10T07:08:26;100353.09;;;24.94;62.85
9764;BME280;4921;43.214;27.936;2023-06-10T07:10:53;100347.22;;;25.04;61.44
9764;BME280;4921;43.214;27.936;2023-06-10T07:13:20;100346.69;;;25.13;61.35
9764;BME280;4921;43.214;27.936;2023-06-10T07:15:47;100337.97;;;24.93;64.35
9764;BME280;4921;43.214;27.936;2023-06-10T07:18:15;100340.91;;;24.91;66.53
9764;BME280;4921;43.214;27.936;2023-06-10T07:20:42;100339.88;;;25.11;68.29
9764;BME280;4921;43.214;27.936;2023-06-10T07:23:11;100334.34;;;25.24;66.92
9764;BME280;4921;43.214;27.936;2023-06-10T07:25:38;100345.56;;;25.39;64.30
9764;BME280;4921;43.214;27.936;2023-06-10T07:28:05;100345.75;;;25.44;63.31
9764;BME280;4921;43.214;27.936;2023-06-10T07:30:32;100344.50;;;25.46;64.73
9764;BME280;4921;43.214;27.936;2023-06-10T07:32:59;100344.09;;;25.43;69.06
9764;BME280;4921;43.214;27.936;2023-06-10T07:35:27;100348.34;;;25.14;76.45
9764;BME280;4921;43.214;27.936;2023-06-10T07:37:54;100346.38;;;25.21;76.30
9764;BME280;4921;43.214;27.936;2023-06-10T07:40:23;100346.84;;;25.36;75.62
9764;BME280;4921;43.214;27.936;2023-06-10T07:42:50;100348.56;;;25.31;78.28
9764;BME280;4921;43.214;27.936;2023-06-10T07:45:18;100348.94;;;25.34;77.99
9764;BME280;4921;43.214;27.936;2023-06-10T07:47:45;100348.81;;;25.29;82.71
9764;BME280;4921;43.214;27.936;2023-06-10T07:50:12;100357.69;;;25.30;84.15
9764;BME280;4921;43.214;27.936;2023-06-10T07:52:39;100352.16;;;25.25;82.12
9764;BME280;4921;43.214;27.936;2023-06-10T07:55:07;100353.41;;;25.04;90.69
9764;BME280;4921;43.214;27.936;2023-06-10T07:57:35;100356.69;;;24.88;97.83
9764;BME280;4921;43.214;27.936;2023-06-10T08:00:05;100349.09;;;25.03;98.92
9764;BME280;4921;43.214;27.936;2023-06-10T08:02:32;100345.47;;;24.91;92.56
9764;BME280;4921;43.214;27.936;2023-06-10T08:04:59;100346.06;;;24.68;90.60
9764;BME280;4921;43.214;27.936;2023-06-10T08:07:26;100344.53;;;24.79;89.55
9764;BME280;4921;43.214;27.936;2023-06-10T08:09:53;100346.66;;;24.70;89.53
9764;BME280;4921;43.214;27.936;2023-06-10T08:12:20;100347.84;;;24.56;88.54
9764;BME280;4921;43.214;27.936;2023-06-10T08:14:48;100336.78;;;24.64;89.29
9764;BME280;4921;43.214;27.936;2023-06-10T08:17:15;100335.03;;;24.76;93.31
9764;BME280;4921;43.214;27.936;2023-06-10T08:19:42;100340.78;;;24.86;84.23
9764;BME280;4921;43.214;27.936;2023-06-10T08:22:09;100337.50;;;24.78;81.52
9764;BME280;4921;43.214;27.936;2023-06-10T08:24:36;100339.69;;;24.87;83.89
9764;BME280;4921;43.214;27.936;2023-06-10T08:27:04;100342.94;;;24.96;83.57
9764;BME280;4921;43.214;27.936;2023-06-10T08:29:32;100320.38;;;24.97;80.40
9764;BME280;4921;43.214;27.936;2023-06-10T08:32:00;100333.75;;;25.22;82.91
9764;BME280;4921;43.214;27.936;2023-06-10T08:34:27;100340.50;;;25.31;83.12
9764;BME280;4921;43.214;27.936;2023-06-10T08:36:54;100329.66;;;25.37;79.56
9764;BME280;4921;43.214;27.936;2023-06-10T08:39:22;100328.81;;;25.37;76.41
9764;BME280;4921;43.214;27.936;2023-06-10T08:41:55;100331.03;;;25.46;75.01
9764;BME280;4921;43.214;27.936;2023-06-10T08:44:28;100332.81;;;25.52;75.60
9764;BME280;4921;43.214;27.936;2023-06-10T08:46:59;100322.19;;;25.57;74.03
9764;BME280;4921;43.214;27.936;2023-06-10T08:49:30;100335.00;;;25.62;75.79
9764;BME280;4921;43.214;27.936;2023-06-10T08:52:02;100341.75;;;25.64;83.49
9764;BME280;4921;43.214;27.936;2023-06-10T08:54:32;100337.25;;;25.47;79.62
9764;BME280;4921;43.214;27.936;2023-06-10T08:57:01;100320.53;;;25.20;80.72
9764;BME280;4921;43.214;27.936;2023-06-10T08:59:31;100317.47;;;25.17;82.05
9764;BME280;4921;43.214;27.936;2023-06-10T09:02:01;100325.00;;;25.26;80.76
9764;BME280;4921;43.214;27.936;2023-06-10T09:04:29;100310.28;;;25.11;76.66
9764;BME280;4921;43.214;27.936;2023-06-10T09:06:57;100323.97;;;25.27;68.57
9764;BME280;4921;43.214;27.936;2023-06-10T09:09:25;100321.66;;;25.31;65.52
9764;BME280;4921;43.214;27.936;2023-06-10T09:11:54;100316.50;;;25.47;65.15
9764;BME280;4921;43.214;27.936;2023-06-10T09:14:21;100308.06;;;25.44;66.45
9764;BME280;4921;43.214;27.936;2023-06-10T09:16:49;100303.50;;;25.44;70.52
9764;BME280;4921;43.214;27.936;2023-06-10T09:19:18;100304.00;;;25.35;67.72
9764;BME280;4921;43.214;27.936;2023-06-10T09:21:46;100304.13;;;25.58;65.28
9764;BME280;4921;43.214;27.936;2023-06-10T09:24:14;100311.78;;;25.91;65.66
9764;BME280;4921;43.214;27.936;2023-06-10T09:26:42;100312.75;;;26.26;60.75
9764;BME280;4921;43.214;27.936;2023-06-10T09:29:11;100303.84;;;26.48;59.61
9764;BME280;4921;43.214;27.936;2023-06-10T09:31:39;100308.75;;;26.28;58.64
9764;BME280;4921;43.214;27.936;2023-06-10T09:34:07;100306.38;;;26.09;63.78
9764;BME280;4921;43.214;27.936;2023-06-10T09:36:37;100301.97;;;25.96;67.60
9764;BME280;4921;43.214;27.936;2023-06-10T09:39:05;100308.88;;;26.22;68.20
9764;BME280;4921;43.214;27.936;2023-06-10T09:41:40;100302.19;;;26.36;71.98
9764;BME280;4921;43.214;27.936;2023-06-10T09:44:11;100300.13;;;26.61;71.13
9764;BME280;4921;43.214;27.936;2023-06-10T09:46:39;100300.00;;;26.56;68.35
9764;BME280;4921;43.214;27.936;2023-06-10T09:49:06;100291.00;;;26.74;65.51
9764;BME280;4921;43.214;27.936;2023-06-10T09:51:33;100294.97;;;26.94;67.83
9764;BME280;4921;43.214;27.936;2023-06-10T09:54:02;100294.38;;;27.04;70.88
9764;BME280;4921;43.214;27.936;2023-06-10T09:56:33;100290.19;;;26.85;65.80
9764;BME280;4921;43.214;27.936;2023-06-10T09:59:01;100291.09;;;27.02;60.38
9764;BME280;4921;43.214;27.936;2023-06-10T10:01:30;100287.66;;;27.18;56.76
9764;BME280;4921;43.214;27.936;2023-06-10T10:03:59;100284.56;;;27.26;57.93
9764;BME280;4921;43.214;27.936;2023-06-10T10:06:27;100281.63;;;27.39;56.11
9764;BME280;4921;43.214;27.936;2023-06-10T10:08:55;100282.00;;;27.31;59.14
9764;BME280;4921;43.214;27.936;2023-06-10T10:11:24;100269.66;;;27.47;58.31
9764;BME280;4921;43.214;27.936;2023-06-10T10:13:53;100275.28;;;27.73;54.83
9764;BME280;4921;43.214;27.936;2023-06-10T10:16:21;100264.38;;;27.97;54.91
9764;BME280;4921;43.214;27.936;2023-06-10T10:18:54;100274.97;;;27.86;51.59
9764;BME280;4921;43.214;27.936;2023-06-10T10:21:23;100268.97;;;28.13;52.36
9764;BME280;4921;43.214;27.936;2023-06-10T10:23:53;100265.06;;;28.37;49.61
9764;BME280;4921;43.214;27.936;2023-06-10T10:26:26;100260.13;;;28.50;49.19
9764;BME280;4921;43.214;27.936;2023-06-10T10:29:05;100257.44;;;28.67;50.28
9764;BME280;4921;43.214;27.936;2023-06-10T10:31:35;100261.22;;;28.88;45.84
9764;BME280;4921;43.214;27.936;2023-06-10T10:34:06;100251.38;;;28.98;46.11
9764;BME280;4921;43.214;27.936;2023-06-10T10:36:33;100254.50;;;28.90;46.47
9764;BME280;4921;43.214;27.936;2023-06-10T10:39:02;100247.16;;;28.69;47.15
9764;BME280;4921;43.214;27.936;2023-06-10T10:41:32;100246.38;;;28.90;45.24
9764;BME280;4921;43.214;27.936;2023-06-10T10:44:01;100234.34;;;29.03;43.47
9764;BME280;4921;43.214;27.936;2023-06-10T10:46:31;100247.66;;;29.04;41.99
9764;BME280;4921;43.214;27.936;2023-06-10T10:49:09;100247.91;;;28.81;43.54
9764;BME280;4921;43.214;27.936;2023-06-10T10:51:37;100242.28;;;28.66;43.79
9764;BME280;4921;43.214;27.936;2023-06-10T10:54:10;100235.88;;;28.72;47.67
9764;BME280;4921;43.214;27.936;2023-06-10T10:56:39;100255.81;;;28.88;46.17
9764;BME280;4921;43.214;27.936;2023-06-10T10:59:07;100245.44;;;29.01;45.89
9764;BME280;4921;43.214;27.936;2023-06-10T11:01:41;100241.00;;;28.74;45.70
9764;BME280;4921;43.214;27.936;2023-06-10T11:04:12;100238.69;;;28.82;45.44
9764;BME280;4921;43.214;27.936;2023-06-10T11:06:39;100238.59;;;28.94;45.79
9764;BME280;4921;43.214;27.936;2023-06-10T11:09:25;100233.47;;;28.97;47.10
9764;BME280;4921;43.214;27.936;2023-06-10T11:11:56;100239.69;;;28.76;48.12
9764;BME280;4921;43.214;27.936;2023-06-10T11:14:26;100242.31;;;28.71;48.63
9764;BME280;4921;43.214;27.936;2023-06-10T11:16:56;100240.75;;;28.75;48.96
9764;BME280;4921;43.214;27.936;2023-06-10T11:19:33;100234.94;;;28.83;49.58
9764;BME280;4921;43.214;27.936;2023-06-10T11:22:01;100234.66;;;28.85;50.60
9764;BME280;4921;43.214;27.936;2023-06-10T11:24:29;100236.88;;;28.88;47.76
9764;BME280;4921;43.214;27.936;2023-06-10T11:27:19;100222.66;;;28.42;44.55
9764;BME280;4921;43.214;27.936;2023-06-10T11:29:57;100210.84;;;28.65;45.96
9764;BME280;4921;43.214;27.936;2023-06-10T11:32:29;100206.31;;;28.71;44.76
9764;BME280;4921;43.214;27.936;2023-06-10T11:34:57;100211.47;;;28.55;46.89
9764;BME280;4921;43.214;27.936;2023-06-10T11:37:24;100213.06;;;28.51;46.35
9764;BME280;4921;43.214;27.936;2023-06-10T11:39:52;100214.22;;;28.39;46.45
9764;BME280;4921;43.214;27.936;2023-06-10T11:42:22;100206.03;;;28.34;47.66
9764;BME280;4921;43.214;27.936;2023-06-10T11:44:49;100196.44;;;28.26;47.68
9764;BME280;4921;43.214;27.936;2023-06-10T11:47:17;100204.34;;;28.11;46.58
9764;BME280;4921;43.214;27.936;2023-06-10T11:49:44;100208.88;;;27.77;47.75
9764;BME280;4921;43.214;27.936;2023-06-10T11:52:11;100211.84;;;27.48;51.87
9764;BME280;4921;43.214;27.936;2023-06-10T11:54:38;100197.69;;;27.57;52.36
9764;BME280;4921;43.214;27.936;2023-06-10T11:57:05;100195.31;;;27.61;51.83
9764;BME280;4921;43.214;27.936;2023-06-10T11:59:36;100188.69;;;27.52;51.50
9764;BME280;4921;43.214;27.936;2023-06-10T12:02:04;100197.22;;;27.32;50.59
9764;BME280;4921;43.214;27.936;2023-06-10T12:04:31;100182.13;;;27.48;47.25
9764;BME280;4921;43.214;27.936;2023-06-10T12:06:58;100174.59;;;27.50;47.77
9764;BME280;4921;43.214;27.936;2023-06-10T12:09:26;100177.13;;;27.56;46.95
9764;BME280;4921;43.214;27.936;2023-06-10T12:11:55;100180.19;;;27.60;46.96
9764;BME280;4921;43.214;27.936;2023-06-10T12:14:53;100177.56;;;27.65;47.41
9764;BME280;4921;43.214;27.936;2023-06-10T12:17:22;100165.44;;;27.67;47.62
9764;BME280;4921;43.214;27.936;2023-06-10T12:19:50;100168.16;;;27.67;46.83
9764;BME280;4921;43.214;27.936;2023-06-10T12:22:17;100162.53;;;27.69;46.89
9764;BME280;4921;43.214;27.936;2023-06-10T12:24:45;100167.13;;;27.40;48.01
9764;BME280;4921;43.214;27.936;2023-06-10T12:27:12;100169.50;;;27.37;45.92
9764;BME280;4921;43.214;27.936;2023-06-10T12:29:39;100170.94;;;27.56;45.11
9764;BME280;4921;43.214;27.936;2023-06-10T12:32:19;100162.00;;;27.55;44.88
9764;BME280;4921;43.214;27.936;2023-06-10T12:34:48;100151.94;;;27.67;42.89
9764;BME280;4921;43.214;27.936;2023-06-10T12:37:16;100156.19;;;27.63;45.28
9764;BME280;4921;43.214;27.936;2023-06-10T12:39:51;100157.13;;;27.69;47.46
9764;BME280;4921;43.214;27.936;2023-06-10T12:42:21;100152.09;;;27.61;48.89
9764;BME280;4921;43.214;27.936;2023-06-10T12:44:53;100153.63;;;27.40;50.09
9764;BME280;4921;43.214;27.936;2023-06-10T12:47:29;100153.66;;;27.57;49.45
9764;BME280;4921;43.214;27.936;2023-06-10T12:49:57;100143.34;;;27.87;45.91
9764;BME280;4921;43.214;27.936;2023-06-10T12:52:24;100142.44;;;27.81;48.15
9764;BME280;4921;43.214;27.936;2023-06-10T12:54:51;100141.56;;;27.92;48.98
9764;BME280;4921;43.214;27.936;2023-06-10T12:57:18;100137.28;;;27.97;46.70
9764;BME280;4921;43.214;27.936;2023-06-10T12:59:45;100128.94;;;27.98;41.41
9764;BME280;4921;43.214;27.936;2023-06-10T13:02:18;100129.25;;;28.02;39.78
9764;BME280;4921;43.214;27.936;2023-06-10T13:04:47;100120.59;;;28.16;39.50